Create Custom Reports and Graphics: Custom Report

Alpine-Summit 8643' (Ward Mt.)

Current Conditions

5/30/20 8:15 PM (-07:00)
Updated Every 15 Minutes
Temp 36.4 °F   21.2
RH 100 %   49
Wet Bulb 36.4 °F   11.2
Dew Pt 36.4 °F   3.3
Wind Spd 0.3 mph   0.0
Wind Dir N | 4 °
Wind Gust 3.2 mph   0.1
WindChill 36.4 °F   21.2

Last 6 Hours

Alpine-Summit 8643' (Ward Mt.)

15 Minute Data | America/Los_Angeles
as of 5/30/20 8:30 PM PDT
Date & Time Temp (°F) RH (%) Dew Pt (°F) Wet Bulb (°F) Wind Dir (°) Wind Spd (mph) Wind Gust (mph) WindChill (°F)
5/30/20 - 2015 36.4 100 36.4 36.4 N | 4 0.3 3.2 36.4
5/30/20 - 2000 36.4 100 36.4 36.4 N | 5 0.3 3.4 36.0
5/30/20 - 1945 36.0 100 36.0 36.0 N | 6 0.2 2.5 36.0
5/30/20 - 1930 35.8 100 35.8 35.8 N | 5 0.4 2.3 35.8
5/30/20 - 1915 35.9 99 35.6 35.7 N | 4 0.4 3.2 35.9
5/30/20 - 1900 36.1 99 35.9 36.0 N | 3 0.4 3.0 36.2
5/30/20 - 1845 36.2 98 35.6 35.9 N | 6 0.2 4.1 36.4
5/30/20 - 1830 36.8 93 35.0 35.9 N | 5 0.3 4.5 37.4
5/30/20 - 1815 37.8 98 37.4 37.6 N | 4 0.3 2.9 37.0
5/30/20 - 1800 36.8 99 36.4 36.6 N | 5 0.3 2.7 36.9
5/30/20 - 1745 37.1 98 36.7 36.9 N | 3 0.2 4.0 37.5
5/30/20 - 1730 37.8 98 37.2 37.5 N | 4 0.4 3.0 37.9
5/30/20 - 1715 37.7 100 37.6 37.6 N | 2 0.3 2.3 37.3
5/30/20 - 1700 37.2 99 37.0 37.1 N | 3 0.2 2.4 37.1
5/30/20 - 1645 36.9 99 36.6 36.7 N | 3 0.2 2.4 37.4
5/30/20 - 1630 37.7 99 37.5 37.6 N | 4 0.3 1.9 37.8
5/30/20 - 1615 37.8 100 37.7 37.7 N | 4 0.3 4.0 37.2
5/30/20 - 1600 36.7 99 36.5 36.6 N | 3 0.3 2.8 36.6
5/30/20 - 1545 36.5 98 36.0 36.2 N | 2 0.2 1.7 37.3
5/30/20 - 1530 37.9 99 37.6 37.7 N | 2 0.2 2.0 38.3
5/30/20 - 1515 39.0 96 38.0 38.5 N | 2 0.3 2.3 39.3
5/30/20 - 1500 39.4 98 38.9 39.2 N | 2 0.4 3.6 39.0
5/30/20 - 1445 38.4 98 37.9 38.1 N | 2 0.3 2.0 38.7
Max 39.4 100 38.9 39.2 - 0.4 4.5 39.3
Avg 37.1 99 36.8 36.9 - 0.3 2.9 37.2
Min 35.8 93 35.0 35.7 - 0.2 1.7 35.8

Last 30 Days

Alpine-Summit 8643' (Ward Mt.)

Daily Data | America/Los_Angeles
as of 5/30/20 8:30 PM PDT
Date Daily Max Temp (°F) Max Temp Time Daily Min Temp (°F) Min Temp Time Wind Spd (mph) Daily Max Wind (mph) Max RH (%) Min RH (%) Wet Bulb (°F)
5/29/20 72.4 1445 52.4 0000 0.3 4.6 73 18 46.1
5/28/20 75.6 1732 55.6 0451 0.3 4.9 47 14 44.6
5/27/20 70.0 1824 52.1 0538 0.3 4.6 70 24 47.9
5/26/20 69.6 1633 49.5 0501 0.3 4.8 75 43 49.4
5/25/20 67.4 1512 44.9 0540 0.3 4.6 69 31 44.1
5/24/20 65.8 1736 37.9 0527 0.3 4.5 65 26 38.9
5/23/20 58.1 1644 27.6 0508 0.3 4.2 76 29 33.0
5/22/20 44.9 1555 29.7 2353 0.3 4.5 100 42 33.0
5/21/20 48.9 1826 31.9 0257 0.2 4.5 100 27 35.2
5/20/20 39.3 1737 28.5 0328 0.2 4.2 100 89 32.7
5/19/20 35.2 1452 25.3 0152 0.2 4.6 100 97 29.1
5/18/20 32.0 0000 26.0 1010 0.3 4.1 100 99 28.6
5/17/20 37.9 1625 31.9 2355 0.3 4.3 100 82 35.4
5/16/20 52.3 1458 36.3 2347 0.3 4.6 99 46 38.9
5/15/20 51.1 1621 29.1 0244 0.3 4.3 100 59 36.5
5/14/20 35.3 1420 27.7 0752 0.3 4.2 100 99 31.4
5/13/20 33.8 1539 26.9 0636 0.3 4.5 100 96 29.9
5/12/20 32.9 1215 28.5 2352 0.3 4.3 100 98 31.1
5/11/20 46.0 1530 29.8 2319 0.3 4.1 98 36 33.4
5/10/20 59.4 1605 41.1 2306 0.3 4.7 82 35 41.9
5/9/20 64.5 1623 47.2 0606 0.3 4.4 49 24 40.5
5/8/20 67.0 1706 43.5 0337 0.3 4.4 49 14 39.1
5/7/20 64.9 1705 37.8 0615 0.2 5.5 42 20 35.0
5/6/20 63.9 1713 35.9 0211 0.3 5.0 65 10 33.4
5/5/20 54.3 1636 36.2 2325 0.3 4.3 68 21 34.1
5/4/20 54.8 1606 31.6 0308 0.3 4.5 47 6 30.4
5/3/20 48.1 1747 30.6 0312 0.3 4.5 99 22 32.5
5/2/20 45.1 1419 32.9 2326 0.3 4.3 96 47 33.2
5/1/20 52.6 1523 34.2 0404 0.3 5.0 94 40 35.0
4/30/20 49.4 1609 34.6 2357 0.3 4.3 99 51 37.5
Max 75.6 - 55.6 - 0.3 5.5 100 99 49.4
Avg - - - - 0.3 - - - 36.4
Min 32.0 - 25.3 - 0.2 4.1 42 6 28.6
Calm: 0.0%
Calm: 0.0%